• Join FlightAware (Why Join?)
  • Login
  • US Flag 
08:09PM EDT


 

Airport Tracker/Info


-or-


 

Live Flight TrackerFlight Track Log ✈ UAL3773 ✈ 22-Apr-2013 ✈ KCLT - KIAD

Flight Track Log - Related Links

Times and Time Zones

All times are in EDT time to prevent confusion due to time zone crossing. See the UAL3773 flight status page for this flight to view local times or setup timezone preferences in your user account.

Time Position Orientation Groundspeed Altitude Reporting Facility
EDT Latitude Longitude Course Direction KTS MPH feet Rate Location/Type
12:04PM 35.2242 -80.9394 72° East 151 174 1,400  Level Atlanta Center
12:04PM 35.2406 -80.9367 North 148 170 2,500 2,220 Climbing FAA TRACON SMA TRACON (SMA)
12:05PM 35.2706 -80.9244 18° North 204 235 3,700 1,920 Climbing FAA TRACON SMA TRACON (SMA)
12:05PM 35.2925 -80.9119 25° Northeast 254 292 4,400 2,700 Climbing FAA TRACON SMA TRACON (SMA)
12:05PM 35.3025 -80.8903 61° Northeast 241 277 5,500 3,000 Climbing FAA TRACON SMA TRACON (SMA)
12:06PM 35.3019 -80.8639 91° East 251 289 6,400 2,400 Climbing FAA TRACON SMA TRACON (SMA)
12:06PM 35.3003 -80.8361 94° East 269 310 7,100 1,800 Climbing FAA TRACON SMA TRACON (SMA)
12:06PM 35.2981 -80.7994 94° East 279 321 7,600 1,200 Climbing FAA TRACON SMA TRACON (SMA)
12:07PM 35.2407 -80.5376 30° Northeast  Level FlightAware Approximate
12:07PM 35.2964 -80.7692 94° East 291 335 7,900  Level FAA TRACON SMA TRACON (SMA)
12:07PM 35.2947 -80.7386 94° East 293 337 8,600 3,000 Climbing FAA TRACON SMA TRACON (SMA)
12:07PM 35.2919 -80.7003 95° East 293 337 9,900 3,420 Climbing FAA TRACON SMA TRACON (SMA)
12:08PM 35.3337 -80.4652 72° East  Level FlightAware Approximate
12:08PM 35.2928 -80.6694 88° East 297 342 10,900  Level FAA TRACON SMA TRACON (SMA)
12:08PM 35.2981 -80.6386 78° East 305 351 11,600 1,320 Climbing FAA TRACON SMA TRACON (SMA)
12:08PM 35.3064 -80.5964 76° East 339 390 11,800 1,200 Climbing FAA TRACON SMA TRACON (SMA)
12:09PM 35.3705 -80.3260 72° East  Level FlightAware Approximate
12:09PM 35.3142 -80.5603 75° East 355 409 12,400  Level FAA TRACON SMA TRACON (SMA)
12:09PM 35.3225 -80.5236 74° East 363 418 13,200 2,520 Climbing FAA TRACON SMA TRACON (SMA)
12:09PM 35.3328 -80.4775 75° East 368 423 14,100 2,580 Climbing FAA TRACON SMA TRACON (SMA)
12:10PM 35.3442 -80.4408 69° East 372 428 14,900 2,220 Climbing FAA TRACON SMA TRACON (SMA)
12:10PM 35.3553 -80.4039 70° East 374 430 15,600 2,340 Climbing FAA TRACON SMA TRACON (SMA)
12:10PM 35.3697 -80.3575 69° East 378 435 16,500 2,400 Climbing FAA TRACON SMA TRACON (SMA)
12:11PM 35.3808 -80.3197 70° East 380 437 17,200 1,800 Climbing FAA TRACON SMA TRACON (SMA)
12:11PM 35.3928 -80.2817 69° East 385 443 17,700 1,320 Climbing FAA TRACON SMA TRACON (SMA)
12:11PM 35.4081 -80.2328 69° East 397 457 18,100 1,500 Climbing FAA TRACON SMA TRACON (SMA)
12:12PM 35.4194 -80.1922 71° East 404 465 18,700 1,560 Climbing FAA TRACON SMA TRACON (SMA)
12:12PM 35.4319 -80.1519 69° East 409 471 19,200 2,220 Climbing FAA TRACON SMA TRACON (SMA)
12:12PM 35.4456 -80.1000 72° East 413 475 20,200 2,160 Climbing FAA TRACON SMA TRACON (SMA)
12:13PM 35.4564 -80.0583 72° East 415 478 20,600 1,380 Climbing FAA TRACON SMA TRACON (SMA)
12:13PM 35.4667 -80.0158 73° East 420 483 21,100 1,620 Climbing FAA TRACON SMA TRACON (SMA)
12:13PM 35.4806 -79.9619 72° East 429 494 21,700 1,440 Climbing FAA TRACON SMA TRACON (SMA)
12:14PM 35.4914 -79.9178 73° East 434 499 22,100 1,320 Climbing FAA TRACON SMA TRACON (SMA)
12:14PM 35.5031 -79.8733 72° East 441 507 22,600 1,020 Climbing FAA TRACON SMA TRACON (SMA)
12:14PM 35.5086 -79.8508 73° East 444 511 22,800 240 Climbing FAA TRACON SMA TRACON (SMA)
12:15PM 35.5086 -79.8508 292° West 444 511 22,800 1,560 Level FAA TRACON SMA TRACON (SMA)
12:16PM 35.5689 -79.6114 73° East 443 510 25,100 1,680 Climbing Washington Center
12:17PM 35.6050 -79.4700 73° East 472 543 26,300 900 Climbing Washington Center
12:18PM 35.6667 -79.3017 66° East 479 551 27,000 300 Climbing Washington Center
12:19PM 35.7564 -79.1678 50° Northeast 498 573 27,000  Level Washington Center
12:20PM 35.8800 -79.0758 31° Northeast 490 564 27,000  Level Washington Center
12:21PM 36.0078 -78.9864 30° Northeast 502 578 27,000  Level Washington Center
12:22PM 36.1336 -78.8917 31° Northeast 521 600 27,000  Level Washington Center
12:23PM 36.2614 -78.7992 30° Northeast 526 605 27,000  Level Washington Center
12:24PM 36.3847 -78.7061 31° Northeast 526 605 27,000  Level Washington Center
12:25PM 36.5061 -78.6153 31° Northeast 521 600 27,000  Level Washington Center
12:26PM 36.6353 -78.5400 25° Northeast 514 592 27,000  Level Washington Center
12:27PM 36.7533 -78.4850 20° North 502 578 27,000 -60 Level Washington Center
12:28PM 36.8861 -78.4303 18° North 502 578 26,900 -660 Descending Washington Center
12:29PM 37.0378 -78.3681 18° North 507 583 25,700 -1,080 Descending Washington Center
12:30PM 37.1525 -78.2733 33° Northeast 500 575 24,800 -900 Descending Washington Center
12:31PM 37.2403 -78.1719 43° Northeast 505 581 24,000 -960 Descending Washington Center
12:32PM 37.3517 -78.0400 43° Northeast 505 581 22,900 -900 Descending Washington Center
12:33PM 37.4478 -77.9253 43° Northeast 485 558 22,300 -480 Descending Washington Center
12:34PM 37.5456 -77.8183 41° Northeast 472 543 22,000 -660 Descending Washington Center
12:35PM 37.6639 -77.7483 25° Northeast 461 531 21,000 -2,100 Descending Washington Center
12:36PM 37.7775 -77.6831 24° Northeast 452 520 17,900 -2,820 Descending Washington Center
12:37PM 37.8828 -77.6203 25° Northeast 428 493 15,400 -2,760 Descending Washington Center
12:38PM 37.9861 -77.5625 24° Northeast 412 474 12,400 -2,700 Descending Washington Center
12:39PM 38.0808 -77.5094 24° Northeast 387 445 10,100 -1,200 Descending Washington Center
12:40PM 38.1608 -77.4614 25° Northeast 351 404 10,000 -180 Descending Washington Center
12:41PM 38.2344 -77.4156 26° Northeast 311 358 9,800 -660 Descending Washington Center
12:42PM 38.3133 -77.4336 350° North 272 313 8,700 -1,080 Descending Washington Center
12:43PM 38.3858 -77.4669 340° North 272 313 7,700 -1,020 Descending Washington Center
12:44PM 38.4631 -77.4717 357° North 272 313 6,700 -1,020 Descending Washington Center
12:45PM 38.5358 -77.4708 North 272 313 5,700 -1,140 Descending Washington Center
12:46PM 38.6333 -77.4667 North 255 293 4,200 -1,080 Descending Potomac TRACON
12:47PM 38.7000 -77.4667 360° North 244 281 3,400 -720 Descending Potomac TRACON
12:48PM 38.7667 -77.4667 360° North 248 285 2,900 -420 Descending Potomac TRACON
12:49PM 38.8333 -77.4667 360° North 194 223 2,600 -300 Descending Potomac TRACON